createdAt,value
2023-02-25T00:01:51.170Z,99.90
2023-02-25T00:04:28.561Z,99.90
2023-02-25T00:06:56.149Z,99.90
2023-02-25T00:09:23.724Z,99.90
2023-02-25T00:11:51.304Z,99.90
2023-02-25T00:14:19.080Z,99.90
2023-02-25T00:16:48.900Z,99.90
2023-02-25T00:19:16.618Z,99.90
2023-02-25T00:21:44.639Z,99.90
2023-02-25T00:24:16.708Z,99.90
2023-02-25T00:26:45.126Z,99.90
2023-02-25T00:29:12.761Z,99.90
2023-02-25T00:31:40.602Z,99.90
2023-02-25T00:34:11.043Z,99.90
2023-02-25T00:36:39.651Z,99.90
2023-02-25T00:39:08.995Z,99.90
2023-02-25T00:41:36.569Z,99.90
2023-02-25T00:44:04.716Z,99.90
2023-02-25T00:46:32.594Z,99.90
2023-02-25T00:49:01.161Z,99.90
2023-02-25T00:51:31.204Z,99.90
2023-02-25T00:53:59.190Z,99.90
2023-02-25T00:56:27.448Z,99.90
2023-02-25T00:58:55.215Z,99.90
2023-02-25T01:01:26.376Z,99.90
2023-02-25T01:04:00.625Z,99.90
2023-02-25T01:06:29.625Z,99.90
2023-02-25T01:08:58.828Z,99.90
2023-02-25T01:11:31.992Z,99.90
2023-02-25T01:14:02.897Z,99.90
2023-02-25T01:16:35.336Z,99.90
2023-02-25T01:19:09.077Z,99.90
2023-02-25T01:21:39.872Z,99.90
2023-02-25T01:24:12.491Z,99.90
2023-02-25T01:26:42.442Z,99.90
2023-02-25T01:29:12.369Z,99.90
2023-02-25T01:31:40.626Z,99.90
2023-02-25T01:34:10.590Z,99.90
2023-02-25T01:36:38.363Z,99.90
2023-02-25T01:39:06.553Z,99.90
2023-02-25T01:41:35.881Z,99.90
2023-02-25T01:44:15.006Z,99.90
2023-02-25T01:46:45.028Z,99.90
2023-02-25T01:49:20.836Z,99.90
2023-02-25T01:51:51.971Z,99.90
2023-02-25T01:54:20.888Z,99.90
2023-02-25T01:56:52.252Z,99.90
2023-02-25T01:59:22.638Z,99.90
2023-02-25T02:01:50.816Z,99.90
2023-02-25T02:04:19.882Z,99.90
2023-02-25T02:06:50.464Z,99.90
2023-02-25T02:09:23.959Z,99.90
2023-02-25T02:11:51.695Z,99.90
2023-02-25T02:14:28.921Z,99.90
2023-02-25T02:17:25.494Z,99.90
2023-02-25T02:20:15.124Z,99.90
2023-02-25T02:23:37.412Z,99.90
2023-02-25T02:26:10.978Z,99.90
2023-02-25T02:28:57.478Z,99.90
2023-02-25T02:31:33.880Z,99.90
2023-02-25T02:34:25.984Z,99.90
2023-02-25T02:37:37.672Z,99.90
2023-02-25T02:40:11.821Z,99.90
2023-02-25T02:43:17.584Z,99.90
2023-02-25T02:45:53.023Z,99.90
2023-02-25T02:48:41.987Z,99.90
2023-02-25T02:51:19.880Z,99.90
2023-02-25T02:53:52.619Z,99.90
2023-02-25T02:56:23.218Z,99.90
2023-02-25T02:59:07.604Z,99.90
2023-02-25T03:01:51.412Z,99.90
2023-02-25T03:04:26.624Z,99.90
2023-02-25T03:07:00.588Z,99.90
2023-02-25T03:09:36.373Z,99.90
2023-02-25T03:12:06.912Z,99.90
2023-02-25T03:14:36.477Z,99.90
2023-02-25T03:17:31.984Z,99.90
2023-02-25T03:20:02.509Z,99.90
2023-02-25T03:22:41.625Z,99.90
2023-02-25T03:25:22.555Z,99.90
2023-02-25T03:27:56.852Z,99.90
2023-02-25T03:30:29.982Z,99.90
2023-02-25T03:33:03.333Z,99.90
2023-02-25T03:35:35.133Z,99.90
2023-02-25T03:38:09.696Z,99.90
2023-02-25T03:40:40.222Z,99.90
2023-02-25T03:43:21.312Z,99.90
2023-02-25T03:45:49.260Z,99.90
2023-02-25T03:48:19.141Z,99.90
2023-02-25T03:51:01.691Z,99.90
2023-02-25T03:53:31.950Z,99.90
2023-02-25T03:56:05.448Z,99.90
2023-02-25T03:58:37.456Z,99.90
2023-02-25T04:01:17.856Z,99.90
2023-02-25T04:03:45.494Z,99.90
2023-02-25T04:06:13.992Z,99.90
2023-02-25T04:08:42.099Z,99.90
2023-02-25T04:11:09.764Z,99.90
2023-02-25T04:13:37.344Z,99.90
2023-02-25T04:16:05.885Z,99.90
2023-02-25T04:18:33.471Z,99.90
2023-02-25T04:21:01.174Z,99.90
2023-02-25T04:23:28.810Z,99.90
2023-02-25T04:25:56.393Z,99.90
2023-02-25T04:28:24.007Z,99.90
2023-02-25T04:30:55.308Z,99.90
2023-02-25T04:33:23.039Z,99.90
2023-02-25T04:35:51.717Z,99.90
2023-02-25T04:38:19.285Z,99.90
2023-02-25T04:40:49.732Z,99.90
2023-02-25T04:43:18.181Z,99.90
2023-02-25T04:45:46.703Z,99.90
2023-02-25T04:48:15.483Z,99.90
2023-02-25T04:50:43.050Z,99.90
2023-02-25T04:53:10.602Z,99.90
2023-02-25T04:55:38.168Z,99.90
2023-02-25T04:58:05.784Z,99.90
2023-02-25T05:00:33.630Z,99.90
2023-02-25T05:03:01.244Z,99.90
2023-02-25T05:05:28.921Z,99.90
2023-02-25T05:07:56.518Z,99.90
2023-02-25T05:10:24.146Z,99.90
2023-02-25T05:12:51.739Z,99.90
2023-02-25T05:15:19.371Z,99.90
2023-02-25T05:17:48.069Z,99.90
2023-02-25T05:20:15.738Z,99.90
2023-02-25T05:22:46.164Z,99.90
2023-02-25T05:25:16.536Z,99.90
2023-02-25T05:27:44.148Z,99.90
2023-02-25T05:30:12.405Z,99.90
2023-02-25T05:32:40.241Z,99.90
2023-02-25T05:35:09.445Z,99.90
2023-02-25T05:37:37.678Z,99.90
2023-02-25T05:40:09.660Z,99.90
2023-02-25T05:42:37.796Z,99.90
2023-02-25T05:45:09.558Z,99.90
2023-02-25T05:47:37.221Z,99.90
2023-02-25T05:50:07.803Z,99.90
2023-02-25T05:52:36.625Z,99.90
2023-02-25T05:55:05.157Z,99.90
2023-02-25T05:57:32.753Z,99.90
2023-02-25T06:00:05.793Z,99.90
2023-02-25T06:02:33.840Z,99.90
2023-02-25T06:05:04.503Z,99.90
2023-02-25T06:07:33.284Z,99.90
2023-02-25T06:10:01.791Z,99.90
2023-02-25T06:12:31.793Z,99.90
2023-02-25T06:14:59.990Z,99.90
2023-02-25T06:17:27.603Z,99.90
2023-02-25T06:19:56.329Z,99.90
2023-02-25T06:22:24.147Z,99.90
2023-02-25T06:24:51.710Z,99.90
2023-02-25T06:27:20.410Z,99.90
2023-02-25T06:29:48.957Z,99.90
2023-02-25T06:32:17.154Z,99.90
2023-02-25T06:34:44.916Z,99.90
2023-02-25T06:37:12.502Z,99.90
2023-02-25T06:39:43.083Z,99.90
2023-02-25T06:42:10.750Z,99.90
2023-02-25T06:44:38.701Z,99.90
2023-02-25T06:47:06.309Z,99.90
2023-02-25T06:49:33.899Z,99.90
2023-02-25T06:52:01.596Z,99.90
2023-02-25T06:54:29.199Z,99.90
2023-02-25T06:57:00.757Z,99.90
2023-02-25T06:59:31.118Z,99.90
2023-02-25T07:01:58.723Z,99.90
2023-02-25T07:04:26.296Z,99.90
2023-02-25T07:06:53.982Z,99.90
2023-02-25T07:09:23.935Z,99.90
2023-02-25T07:11:51.723Z,99.90
2023-02-25T07:14:21.783Z,99.90
2023-02-25T07:16:49.671Z,99.90
2023-02-25T07:19:17.323Z,99.90
2023-02-25T07:21:45.161Z,99.90
2023-02-25T07:24:13.243Z,99.90
2023-02-25T07:26:40.863Z,99.90
2023-02-25T07:29:08.462Z,99.90
2023-02-25T07:31:36.145Z,99.90
2023-02-25T07:34:04.405Z,99.90
2023-02-25T07:36:37.558Z,99.90
2023-02-25T07:39:06.709Z,99.90
2023-02-25T07:41:35.459Z,99.90
2023-02-25T07:44:04.954Z,99.90
2023-02-25T07:46:33.339Z,99.90
2023-02-25T07:49:01.187Z,99.90
2023-02-25T07:51:28.823Z,99.90
2023-02-25T07:53:57.608Z,99.90
2023-02-25T07:56:28.598Z,99.90
2023-02-25T07:58:56.357Z,99.90
2023-02-25T08:01:27.238Z,99.90
2023-02-25T08:04:00.700Z,99.90
2023-02-25T08:06:29.241Z,99.90
2023-02-25T08:08:57.345Z,99.90
2023-02-25T08:11:26.532Z,99.90
2023-02-25T08:14:02.060Z,99.90
2023-02-25T08:16:29.607Z,99.90
2023-02-25T08:18:57.282Z,99.90
2023-02-25T08:21:26.006Z,99.90
2023-02-25T08:23:57.174Z,99.90
2023-02-25T08:26:27.463Z,99.90
2023-02-25T08:28:59.690Z,99.90
2023-02-25T08:31:28.076Z,99.90
2023-02-25T08:33:58.006Z,99.90
2023-02-25T08:36:31.996Z,99.90
2023-02-25T08:39:03.206Z,99.90
2023-02-25T08:41:31.061Z,99.90
2023-02-25T08:44:00.427Z,99.90
2023-02-25T08:46:31.147Z,99.90
2023-02-25T08:48:58.906Z,99.90
2023-02-25T08:51:34.183Z,99.90
2023-02-25T08:54:16.051Z,99.90
2023-02-25T08:56:47.372Z,99.90
2023-02-25T08:59:16.212Z,99.90
2023-02-25T09:01:50.363Z,99.90
2023-02-25T09:04:24.424Z,99.90
2023-02-25T09:06:54.068Z,99.90
2023-02-25T09:09:22.017Z,99.90
2023-02-25T09:11:50.175Z,99.90
2023-02-25T09:14:18.590Z,99.90
2023-02-25T09:16:48.390Z,99.90
2023-02-25T09:19:18.264Z,99.90
2023-02-25T09:21:50.217Z,99.90
2023-02-25T09:24:20.675Z,99.90
2023-02-25T09:26:48.310Z,99.90
2023-02-25T09:29:16.431Z,99.90
2023-02-25T09:31:46.935Z,99.90
2023-02-25T09:34:14.713Z,99.90
2023-02-25T09:36:42.743Z,99.90
2023-02-25T09:39:10.685Z,99.90
2023-02-25T09:41:45.756Z,99.90
2023-02-25T09:44:16.339Z,99.90
2023-02-25T09:46:55.914Z,99.90
2023-02-25T09:49:42.850Z,99.90
2023-02-25T09:52:24.160Z,99.90
2023-02-25T09:55:18.176Z,99.90
2023-02-25T09:58:02.867Z,99.90
2023-02-25T10:00:35.369Z,99.90
2023-02-25T10:03:14.142Z,99.90
2023-02-25T10:06:02.926Z,99.90
2023-02-25T10:08:53.637Z,99.90
2023-02-25T10:11:42.841Z,99.90
2023-02-25T10:14:20.599Z,99.90
2023-02-25T10:17:21.486Z,99.90
2023-02-25T10:20:21.413Z,99.90
2023-02-25T10:23:09.111Z,99.90
2023-02-25T10:25:42.690Z,99.90
2023-02-25T10:28:15.974Z,99.90
2023-02-25T10:31:18.845Z,99.90
2023-02-25T10:33:49.793Z,99.90
2023-02-25T10:36:20.091Z,99.90
2023-02-25T10:38:51.090Z,99.90
2023-02-25T10:41:26.662Z,99.90
2023-02-25T10:43:55.609Z,99.90
2023-02-25T10:46:31.435Z,99.90
2023-02-25T10:53:01.491Z,99.90
2023-02-25T10:55:43.337Z,99.90
2023-02-25T10:58:44.342Z,99.90
2023-02-25T11:01:16.849Z,99.90
2023-02-25T11:03:46.826Z,99.90
2023-02-25T11:06:25.124Z,99.90
2023-02-25T11:08:58.765Z,99.90
2023-02-25T11:11:32.248Z,99.90
2023-02-25T11:14:12.212Z,99.90
2023-02-25T11:16:42.540Z,99.90
2023-02-25T11:19:27.618Z,99.90
2023-02-25T11:21:57.822Z,99.90
2023-02-25T11:24:48.585Z,99.90
2023-02-25T11:27:28.467Z,99.90
2023-02-25T11:30:03.277Z,99.90
2023-02-25T11:32:33.476Z,99.80
2023-02-25T11:35:08.852Z,98.00
2023-02-25T11:37:43.207Z,96.80
2023-02-25T11:40:22.507Z,96.10
2023-02-25T11:43:08.209Z,99.60
2023-02-25T11:45:46.653Z,99.90
2023-02-25T11:48:22.107Z,99.90
2023-02-25T11:50:55.769Z,99.90
2023-02-25T11:54:02.953Z,99.90
2023-02-25T11:56:40.688Z,99.90
2023-02-25T11:59:29.090Z,99.90
2023-02-25T12:02:19.281Z,99.90
2023-02-25T12:04:55.039Z,99.90
2023-02-25T12:08:00.018Z,99.90
2023-02-25T12:10:51.785Z,99.90
2023-02-25T12:13:37.662Z,99.90
2023-02-25T12:16:30.282Z,99.90
2023-02-25T12:19:25.748Z,99.90
2023-02-25T12:22:33.983Z,99.90
2023-02-25T12:25:22.824Z,99.90
2023-02-25T12:27:59.645Z,99.90
2023-02-25T12:30:51.355Z,99.90
2023-02-25T12:33:36.020Z,99.90
2023-02-25T12:36:15.612Z,99.90
2023-02-25T12:39:21.043Z,99.90
2023-02-25T12:42:13.414Z,99.90
2023-02-25T12:45:10.061Z,99.90
2023-02-25T12:48:10.395Z,99.90
2023-02-25T12:51:29.031Z,99.90
2023-02-25T12:54:08.571Z,99.90
2023-02-25T12:57:03.195Z,99.90
2023-02-25T12:59:52.564Z,99.90
2023-02-25T13:03:08.556Z,99.90
2023-02-25T13:05:36.072Z,99.90
2023-02-25T13:08:13.139Z,99.90
2023-02-25T13:10:54.250Z,99.90
2023-02-25T13:13:46.825Z,99.90
2023-02-25T13:16:45.504Z,99.90
2023-02-25T13:19:39.754Z,99.90
2023-02-25T13:22:23.745Z,99.90
2023-02-25T13:25:14.437Z,99.90
2023-02-25T13:28:06.541Z,99.90
2023-02-25T13:30:49.354Z,99.90
2023-02-25T13:33:33.717Z,99.90
2023-02-25T13:36:46.793Z,99.90
2023-02-25T13:39:32.608Z,99.90
2023-02-25T13:42:27.127Z,99.90
2023-02-25T13:45:32.827Z,99.90
2023-02-25T13:48:12.461Z,99.90
2023-02-25T13:50:56.622Z,99.90
2023-02-25T13:53:48.513Z,99.90
2023-02-25T13:56:53.497Z,99.90
2023-02-25T14:00:01.736Z,99.90
2023-02-25T14:02:47.911Z,99.90
2023-02-25T14:05:49.541Z,99.90
2023-02-25T14:08:51.089Z,99.90
2023-02-25T14:12:11.580Z,99.90
2023-02-25T14:15:23.860Z,99.90
2023-02-25T14:18:06.353Z,99.90
2023-02-25T14:20:49.597Z,99.90
2023-02-25T14:23:22.985Z,99.90
2023-02-25T14:26:16.887Z,99.90
2023-02-25T14:29:02.343Z,99.90
2023-02-25T14:32:13.553Z,99.90
2023-02-25T14:34:50.579Z,99.90
2023-02-25T14:37:47.930Z,99.90
2023-02-25T14:40:47.539Z,99.90
2023-02-25T14:43:30.656Z,99.90
2023-02-25T14:46:04.368Z,99.90
2023-02-25T14:48:59.763Z,99.90
2023-02-25T14:51:46.024Z,99.90
2023-02-25T14:54:32.012Z,97.20
2023-02-25T14:57:05.612Z,96.80
2023-02-25T14:59:45.501Z,97.10
2023-02-25T15:02:45.619Z,96.20
2023-02-25T15:05:34.262Z,97.40
2023-02-25T15:08:15.268Z,96.40
2023-02-25T15:11:01.668Z,96.90
2023-02-25T15:14:08.427Z,97.20
2023-02-25T15:16:58.252Z,97.50
2023-02-25T15:19:49.222Z,96.20
2023-02-25T15:22:21.302Z,94.30
2023-02-25T15:24:49.904Z,95.50
2023-02-25T15:27:35.667Z,95.00
2023-02-25T15:30:07.649Z,96.60
2023-02-25T15:32:57.985Z,98.70
2023-02-25T15:35:34.669Z,99.90
2023-02-25T15:38:13.618Z,99.90
2023-02-25T15:40:46.122Z,99.90
2023-02-25T15:43:14.133Z,99.90
2023-02-25T15:46:08.058Z,99.90
2023-02-25T15:48:38.360Z,99.90
2023-02-25T15:51:12.993Z,99.90
2023-02-25T15:53:44.756Z,99.90
2023-02-25T15:56:24.241Z,99.90
2023-02-25T15:58:58.402Z,99.90
2023-02-25T16:01:43.147Z,99.90
2023-02-25T16:05:06.397Z,99.90
2023-02-25T16:07:43.934Z,99.90
2023-02-25T16:10:18.059Z,99.90
2023-02-25T16:12:50.419Z,99.90
2023-02-25T16:15:27.469Z,99.90
2023-02-25T16:18:00.494Z,99.90
2023-02-25T16:20:33.669Z,99.90
2023-02-25T16:23:01.460Z,99.90
2023-02-25T16:25:53.882Z,99.90
2023-02-25T16:28:27.399Z,99.90
2023-02-25T16:31:14.225Z,99.90
2023-02-25T16:33:41.773Z,99.90
2023-02-25T16:36:17.668Z,99.90
2023-02-25T16:39:09.805Z,99.90
2023-02-25T16:41:39.355Z,99.90
2023-02-25T16:44:08.252Z,99.90
2023-02-25T16:46:39.241Z,99.90
2023-02-25T16:49:29.735Z,99.90
2023-02-25T16:51:58.322Z,99.90
2023-02-25T16:54:36.944Z,99.90
2023-02-25T16:57:09.582Z,99.90
2023-02-25T16:59:38.614Z,99.90
2023-02-25T17:02:15.018Z,99.90
2023-02-25T17:04:53.854Z,99.90
2023-02-25T17:07:32.957Z,99.90
2023-02-25T17:10:06.172Z,99.90
2023-02-25T17:12:45.702Z,99.90
2023-02-25T17:15:21.340Z,99.90
2023-02-25T17:18:02.769Z,99.90
2023-02-25T17:20:34.235Z,99.90
2023-02-25T17:23:06.578Z,99.90
2023-02-25T17:25:40.827Z,99.90
2023-02-25T17:28:17.247Z,99.90
2023-02-25T17:30:51.948Z,99.90
2023-02-25T17:33:26.971Z,99.90
2023-02-25T17:36:17.941Z,99.90
2023-02-25T17:38:48.540Z,99.90
2023-02-25T17:41:20.998Z,99.90
2023-02-25T17:43:48.830Z,99.90
2023-02-25T17:46:30.787Z,99.90
2023-02-25T17:49:02.628Z,99.90
2023-02-25T17:51:36.386Z,99.90
2023-02-25T17:54:20.586Z,99.90
2023-02-25T17:57:00.219Z,99.90
2023-02-25T17:59:27.926Z,99.90
2023-02-25T18:01:58.123Z,99.90
2023-02-25T18:04:45.206Z,99.90
2023-02-25T18:07:29.559Z,99.90
2023-02-25T18:09:57.715Z,99.90
2023-02-25T18:12:26.766Z,99.90
2023-02-25T18:15:06.485Z,99.90
2023-02-25T18:17:41.771Z,99.90
2023-02-25T18:20:27.801Z,99.90
2023-02-25T18:22:56.217Z,99.90
2023-02-25T18:25:42.174Z,99.90
2023-02-25T18:28:18.539Z,99.90
2023-02-25T18:30:46.239Z,99.90
2023-02-25T18:33:13.852Z,99.90
2023-02-25T18:35:44.636Z,99.90
2023-02-25T18:38:19.214Z,99.90
2023-02-25T18:40:48.356Z,99.90
2023-02-25T18:43:18.643Z,99.90
2023-02-25T18:45:47.032Z,99.90
2023-02-25T18:48:14.873Z,99.90
2023-02-25T18:50:44.530Z,99.90
2023-02-25T18:53:22.802Z,99.90
2023-02-25T18:55:54.920Z,99.90
2023-02-25T18:58:23.454Z,99.90
2023-02-25T19:00:54.595Z,99.90
2023-02-25T19:03:29.707Z,99.90
2023-02-25T19:05:57.936Z,99.90
2023-02-25T19:08:25.899Z,99.90
2023-02-25T19:10:54.521Z,99.90
2023-02-25T19:13:34.553Z,99.90
2023-02-25T19:16:02.819Z,99.90
2023-02-25T19:18:30.619Z,99.90
2023-02-25T19:20:58.300Z,99.90
2023-02-25T19:23:26.384Z,99.90
2023-02-25T19:25:57.999Z,99.90
2023-02-25T19:28:26.588Z,99.90
2023-02-25T19:30:54.823Z,99.90
2023-02-25T19:33:22.525Z,99.90
2023-02-25T19:35:50.359Z,99.90
2023-02-25T19:38:19.881Z,99.90
2023-02-25T19:40:48.240Z,99.90
2023-02-25T19:43:16.945Z,99.90
2023-02-25T19:45:44.860Z,99.90
2023-02-25T19:48:12.556Z,99.90
2023-02-25T19:50:41.250Z,99.90
2023-02-25T19:53:09.142Z,99.90
2023-02-25T19:55:38.899Z,99.90
2023-02-25T19:58:06.571Z,99.90
2023-02-25T20:00:34.222Z,99.90
2023-02-25T20:03:02.064Z,99.90
2023-02-25T20:05:29.757Z,99.90
2023-02-25T20:07:57.464Z,99.90
2023-02-25T20:10:25.196Z,99.90
2023-02-25T20:12:52.819Z,99.90
2023-02-25T20:15:20.531Z,99.90
2023-02-25T20:17:49.013Z,99.90
2023-02-25T20:20:16.896Z,99.90
2023-02-25T20:22:44.674Z,99.90
2023-02-25T20:25:13.626Z,99.90
2023-02-25T20:27:43.404Z,99.90
2023-02-25T20:30:15.392Z,99.90
2023-02-25T20:32:45.208Z,99.90
2023-02-25T20:35:21.421Z,99.90
2023-02-25T20:38:08.491Z,99.90
2023-02-25T20:40:39.948Z,99.90
2023-02-25T20:43:09.734Z,99.90
2023-02-25T20:45:37.890Z,99.90
2023-02-25T20:48:05.789Z,99.90
2023-02-25T20:50:33.819Z,99.90
2023-02-25T20:53:04.166Z,99.90
2023-02-25T20:55:31.921Z,99.90
2023-02-25T20:57:59.560Z,99.90
2023-02-25T21:00:27.537Z,99.90
2023-02-25T21:02:55.255Z,99.90
2023-02-25T21:05:22.855Z,99.90
2023-02-25T21:07:51.782Z,99.90
2023-02-25T21:10:21.989Z,99.90
2023-02-25T21:12:50.226Z,99.90
2023-02-25T21:15:20.690Z,99.90
2023-02-25T21:17:51.559Z,99.90
2023-02-25T21:20:21.950Z,99.90
2023-02-25T21:22:52.340Z,99.90
2023-02-25T21:25:20.096Z,99.90
2023-02-25T21:27:47.713Z,99.90
2023-02-25T21:30:16.436Z,99.90
2023-02-25T21:32:44.027Z,99.90
2023-02-25T21:35:11.733Z,99.90
2023-02-25T21:37:42.319Z,99.90
2023-02-25T21:40:10.842Z,99.90
2023-02-25T21:42:39.421Z,99.90
2023-02-25T21:45:07.689Z,99.90
2023-02-25T21:47:35.294Z,99.90
2023-02-25T21:50:06.265Z,99.90
2023-02-25T21:52:33.914Z,99.90
2023-02-25T21:55:01.717Z,99.90
2023-02-25T21:57:29.831Z,99.90
2023-02-25T21:59:57.648Z,99.90
2023-02-25T22:02:26.386Z,99.90
2023-02-25T22:04:53.958Z,99.90
2023-02-25T22:07:24.069Z,99.90
2023-02-25T22:09:51.721Z,99.90
2023-02-25T22:12:21.567Z,99.90
2023-02-25T22:14:49.226Z,99.90
2023-02-25T22:17:17.021Z,99.90
2023-02-25T22:19:44.912Z,99.90
2023-02-25T22:22:14.142Z,99.90
2023-02-25T22:24:42.592Z,99.90
2023-02-25T22:27:11.266Z,99.90
2023-02-25T22:29:38.900Z,99.90
2023-02-25T22:32:06.594Z,99.90
2023-02-25T22:34:34.340Z,99.90
2023-02-25T22:37:04.882Z,99.90
2023-02-25T22:39:32.507Z,99.90
2023-02-25T22:42:00.074Z,99.90
2023-02-25T22:44:30.534Z,99.90
2023-02-25T22:46:58.266Z,99.90
2023-02-25T22:49:26.273Z,99.90
2023-02-25T22:51:54.403Z,99.90
2023-02-25T22:54:22.076Z,99.90
2023-02-25T22:56:53.638Z,99.90
2023-02-25T22:59:21.617Z,99.90
2023-02-25T23:01:49.399Z,99.90
2023-02-25T23:04:17.017Z,99.90
2023-02-25T23:06:45.518Z,99.90
2023-02-25T23:09:14.428Z,99.90
2023-02-25T23:11:43.094Z,99.90
2023-02-25T23:14:11.245Z,99.90
2023-02-25T23:16:42.407Z,99.90
2023-02-25T23:19:15.721Z,99.90
2023-02-25T23:21:43.486Z,99.90
2023-02-25T23:24:16.679Z,99.90
2023-02-25T23:26:45.571Z,99.90
2023-02-25T23:29:13.617Z,99.90
2023-02-25T23:31:47.298Z,99.90
2023-02-25T23:34:19.895Z,99.90
2023-02-25T23:36:50.026Z,99.90
2023-02-25T23:39:19.550Z,99.90
2023-02-25T23:44:22.502Z,99.90
2023-02-25T23:46:50.091Z,99.90
2023-02-25T23:49:17.968Z,99.90
2023-02-25T23:51:50.520Z,99.90
2023-02-25T23:54:20.056Z,99.90
2023-02-25T23:56:49.835Z,99.90
2023-02-25T23:59:18.070Z,99.90
